Terminal Aerodrome Forecast
Issued by NWS

Home | Current Version | Previous Version | Text Only | Print | Product List | Glossary Off
Versions: 1 2 3 4 5 6 7 8 9 10 11 12 13 14 15 16 17 18 19

000
FTUS43 KABR 221700
TAFATY
TAF
KATY 221728Z 2218/2318 21015KT P6SM SCT250
     FM231100 20008KT P6SM BKN080
     FM231600 32013KT P6SM OVC060=

USA.gov is the U.S. government's official web portal to all federal, state and local government web resources and services.